createdAt,value
2023-08-30T00:01:28.821Z,5.68
2023-08-30T00:03:56.092Z,6.65
2023-08-30T00:06:22.984Z,5.43
2023-08-30T00:08:50.733Z,4.78
2023-08-30T00:11:17.565Z,5.15
2023-08-30T00:13:44.612Z,5.75
2023-08-30T00:16:11.588Z,5.40
2023-08-30T00:18:38.763Z,4.90
2023-08-30T00:21:05.615Z,5.78
2023-08-30T00:23:32.471Z,5.25
2023-08-30T00:25:59.428Z,5.18
2023-08-30T00:28:26.320Z,5.18
2023-08-30T00:30:56.301Z,5.32
2023-08-30T00:33:23.439Z,5.18
2023-08-30T00:35:59.860Z,5.22
2023-08-30T00:38:30.767Z,5.25
2023-08-30T00:40:57.883Z,5.55
2023-08-30T00:43:25.788Z,5.80
2023-08-30T00:45:53.346Z,5.20
2023-08-30T00:48:21.928Z,4.53
2023-08-30T00:50:49.360Z,4.95
2023-08-30T00:53:16.421Z,5.25
2023-08-30T00:55:44.696Z,5.88
2023-08-30T00:58:12.532Z,5.60
2023-08-30T01:00:40.671Z,4.65
2023-08-30T01:03:11.188Z,5.25
2023-08-30T01:05:38.276Z,4.80
2023-08-30T01:08:05.913Z,5.50
2023-08-30T01:10:52.281Z,5.53
2023-08-30T01:13:21.752Z,5.57
2023-08-30T01:15:50.149Z,5.25
2023-08-30T01:18:23.020Z,5.10
2023-08-30T01:20:52.800Z,4.65
2023-08-30T01:23:50.748Z,4.22
2023-08-30T01:26:42.035Z,4.70
2023-08-30T01:29:12.665Z,4.50
2023-08-30T01:31:42.023Z,4.93
2023-08-30T01:34:10.000Z,5.03
2023-08-30T01:36:38.024Z,5.45
2023-08-30T01:39:06.381Z,5.72
2023-08-30T01:41:36.725Z,5.55
2023-08-30T01:44:06.028Z,5.80
2023-08-30T01:46:35.046Z,5.38
2023-08-30T01:49:04.799Z,6.18
2023-08-30T01:51:32.956Z,4.93
2023-08-30T01:56:30.521Z,5.75
2023-08-30T01:58:57.791Z,6.07
2023-08-30T02:01:24.924Z,5.65
2023-08-30T02:03:53.038Z,5.45
2023-08-30T02:06:30.716Z,5.30
2023-08-30T02:09:05.991Z,5.30
2023-08-30T02:11:37.471Z,5.30
2023-08-30T02:14:08.958Z,5.15
2023-08-30T02:16:37.848Z,5.00
2023-08-30T02:19:05.429Z,4.57
2023-08-30T02:21:32.641Z,5.65
2023-08-30T02:23:59.742Z,5.30
2023-08-30T02:26:26.608Z,6.32
2023-08-30T02:28:53.830Z,5.63
2023-08-30T02:31:20.943Z,5.57
2023-08-30T02:33:48.000Z,5.40
2023-08-30T02:36:15.398Z,5.00
2023-08-30T02:38:42.546Z,5.38
2023-08-30T02:41:11.365Z,6.18
2023-08-30T02:43:38.992Z,6.10
2023-08-30T02:46:06.684Z,6.10
2023-08-30T02:48:34.750Z,6.68
2023-08-30T02:51:02.023Z,5.78
2023-08-30T02:53:29.230Z,6.25
2023-08-30T02:55:57.069Z,5.78
2023-08-30T02:58:24.714Z,6.47
2023-08-30T03:00:57.334Z,6.22
2023-08-30T03:03:24.253Z,6.22
2023-08-30T03:05:51.406Z,6.13
2023-08-30T03:08:18.428Z,6.65
2023-08-30T03:10:45.634Z,5.53
2023-08-30T03:13:13.501Z,5.93
2023-08-30T03:15:40.659Z,6.15
2023-08-30T03:18:09.255Z,5.15
2023-08-30T03:20:37.041Z,5.45
2023-08-30T03:23:04.482Z,5.68
2023-08-30T03:25:33.894Z,4.90
2023-08-30T03:28:00.861Z,5.65
2023-08-30T03:30:27.869Z,6.63
2023-08-30T03:32:55.763Z,6.82
2023-08-30T03:35:23.040Z,5.85
2023-08-30T03:37:51.509Z,5.90
2023-08-30T03:40:18.675Z,6.05
2023-08-30T03:42:45.673Z,6.15
2023-08-30T03:45:12.957Z,6.13
2023-08-30T03:47:40.381Z,6.45
2023-08-30T03:50:08.152Z,5.93
2023-08-30T03:52:36.306Z,6.28
2023-08-30T03:55:04.058Z,6.60
2023-08-30T03:57:31.512Z,6.20
2023-08-30T03:59:58.343Z,6.22
2023-08-30T04:02:25.562Z,6.47
2023-08-30T04:04:52.568Z,6.90
2023-08-30T04:07:19.567Z,7.25
2023-08-30T04:09:46.513Z,5.70
2023-08-30T04:12:13.611Z,5.95
2023-08-30T04:14:40.730Z,6.78
2023-08-30T04:17:07.579Z,5.95
2023-08-30T04:19:35.270Z,6.05
2023-08-30T04:22:02.514Z,5.80
2023-08-30T04:24:30.155Z,6.22
2023-08-30T04:26:57.025Z,6.50
2023-08-30T04:29:24.069Z,5.35
2023-08-30T04:31:51.014Z,6.20
2023-08-30T04:34:18.204Z,6.20
2023-08-30T04:36:45.798Z,11.38
2023-08-30T04:39:14.995Z,6.90
2023-08-30T04:41:42.643Z,5.93
2023-08-30T04:44:10.174Z,6.45
2023-08-30T04:46:37.122Z,5.93
2023-08-30T04:49:04.869Z,6.00
2023-08-30T04:51:33.258Z,5.88
2023-08-30T04:54:00.290Z,6.05
2023-08-30T04:56:27.417Z,6.57
2023-08-30T04:58:54.583Z,6.47
2023-08-30T05:01:21.822Z,5.70
2023-08-30T05:03:52.212Z,6.17
2023-08-30T05:06:20.145Z,5.50
2023-08-30T05:08:47.134Z,6.45
2023-08-30T05:11:14.371Z,6.20
2023-08-30T05:13:42.161Z,5.80
2023-08-30T05:16:09.225Z,6.35
2023-08-30T05:18:36.441Z,6.28
2023-08-30T05:21:06.161Z,6.22
2023-08-30T05:23:33.529Z,6.28
2023-08-30T05:26:00.511Z,7.05
2023-08-30T05:28:27.419Z,5.78
2023-08-30T05:30:54.515Z,7.82
2023-08-30T05:33:50.485Z,8.73
2023-08-30T05:36:49.331Z,6.38
2023-08-30T05:39:28.235Z,6.78
2023-08-30T05:41:57.832Z,7.32
2023-08-30T05:44:25.068Z,6.47
2023-08-30T05:46:52.318Z,5.90
2023-08-30T05:49:19.214Z,5.82
2023-08-30T05:51:46.719Z,6.55
2023-08-30T05:54:14.299Z,5.53
2023-08-30T05:56:41.393Z,5.03
2023-08-30T05:59:09.118Z,6.28
2023-08-30T06:01:36.721Z,5.82
2023-08-30T06:04:05.674Z,5.63
2023-08-30T06:06:32.600Z,5.40
2023-08-30T06:09:00.359Z,6.05
2023-08-30T06:11:27.791Z,5.82
2023-08-30T06:13:54.815Z,5.82
2023-08-30T06:16:22.191Z,6.00
2023-08-30T06:18:49.122Z,6.25
2023-08-30T06:21:16.351Z,6.05
2023-08-30T06:23:43.189Z,6.40
2023-08-30T06:26:10.256Z,6.53
2023-08-30T06:28:38.780Z,6.22
2023-08-30T06:31:06.032Z,6.18
2023-08-30T06:33:33.068Z,6.25
2023-08-30T06:36:00.228Z,7.28
2023-08-30T06:38:27.354Z,5.75
2023-08-30T06:40:55.020Z,5.72
2023-08-30T06:43:22.077Z,5.65
2023-08-30T06:45:49.176Z,5.63
2023-08-30T06:48:16.375Z,5.35
2023-08-30T06:50:43.586Z,6.00
2023-08-30T06:53:10.550Z,5.45
2023-08-30T06:55:38.882Z,5.25
2023-08-30T06:58:06.274Z,5.40
2023-08-30T07:00:33.638Z,5.45
2023-08-30T07:03:00.799Z,5.38
2023-08-30T07:05:27.981Z,5.22
2023-08-30T07:07:54.835Z,5.20
2023-08-30T07:10:21.818Z,4.82
2023-08-30T07:12:50.148Z,5.63
2023-08-30T07:15:18.361Z,5.45
2023-08-30T07:17:52.799Z,5.35
2023-08-30T07:20:22.036Z,5.60
2023-08-30T07:22:49.042Z,5.55
2023-08-30T07:25:15.919Z,5.43
2023-08-30T07:27:43.062Z,4.72
2023-08-30T07:30:10.491Z,5.05
2023-08-30T07:32:39.365Z,5.22
2023-08-30T07:35:07.013Z,4.97
2023-08-30T07:37:34.149Z,4.85
2023-08-30T07:40:01.143Z,5.22
2023-08-30T07:42:28.277Z,4.57
2023-08-30T07:44:55.469Z,5.10
2023-08-30T07:47:22.590Z,5.20
2023-08-30T07:49:49.518Z,5.15
2023-08-30T07:52:16.843Z,5.47
2023-08-30T07:54:45.402Z,4.60
2023-08-30T07:57:12.978Z,5.35
2023-08-30T07:59:40.108Z,5.55
2023-08-30T08:02:09.027Z,6.25
2023-08-30T08:04:36.887Z,6.25
2023-08-30T08:07:06.019Z,5.57
2023-08-30T08:09:33.666Z,4.90
2023-08-30T08:12:01.236Z,5.35
2023-08-30T08:14:28.577Z,5.35
2023-08-30T08:16:56.016Z,6.40
2023-08-30T08:19:26.019Z,7.00
2023-08-30T08:21:56.286Z,5.65
2023-08-30T08:24:23.427Z,5.10
2023-08-30T08:26:50.361Z,7.25
2023-08-30T08:29:17.431Z,25.10
2023-08-30T08:31:44.489Z,9.40
2023-08-30T08:34:13.396Z,6.50
2023-08-30T08:36:41.385Z,8.80
2023-08-30T08:39:08.793Z,8.10
2023-08-30T08:41:45.493Z,6.50
2023-08-30T08:44:14.189Z,5.40
2023-08-30T08:46:42.645Z,4.57
2023-08-30T08:49:17.837Z,5.00
2023-08-30T08:51:46.229Z,4.45
2023-08-30T08:54:14.450Z,5.55
2023-08-30T08:56:41.940Z,5.47
2023-08-30T08:59:10.118Z,6.53
2023-08-30T09:01:37.861Z,14.35
2023-08-30T09:04:09.382Z,9.18
2023-08-30T09:06:37.401Z,5.05
2023-08-30T09:09:05.798Z,4.78
2023-08-30T09:14:03.784Z,5.65
2023-08-30T09:16:30.850Z,5.15
2023-08-30T09:21:33.187Z,4.80
2023-08-30T09:24:07.883Z,5.25
2023-08-30T09:26:40.276Z,4.90
2023-08-30T09:29:08.318Z,4.70
2023-08-30T09:31:41.640Z,4.93
2023-08-30T09:34:09.183Z,4.68
2023-08-30T09:36:40.319Z,4.68
2023-08-30T09:39:12.265Z,5.80
2023-08-30T09:41:44.455Z,8.52
2023-08-30T09:44:14.678Z,5.55
2023-08-30T09:46:51.509Z,4.25
2023-08-30T09:49:24.819Z,4.28
2023-08-30T09:51:54.528Z,4.65
2023-08-30T09:54:38.276Z,4.72
2023-08-30T09:57:07.402Z,4.90
2023-08-30T09:59:35.400Z,4.63
2023-08-30T10:02:03.077Z,4.75
2023-08-30T10:04:31.206Z,5.15
2023-08-30T10:06:59.785Z,4.30
2023-08-30T10:09:27.119Z,8.52
2023-08-30T10:11:54.626Z,5.13
2023-08-30T10:14:21.492Z,4.18
2023-08-30T10:16:49.803Z,4.95
2023-08-30T10:19:27.685Z,4.80
2023-08-30T10:22:06.168Z,4.10
2023-08-30T10:25:02.853Z,3.97
2023-08-30T10:27:38.063Z,4.40
2023-08-30T10:30:08.374Z,4.78
2023-08-30T10:32:46.887Z,4.37
2023-08-30T10:35:16.141Z,3.97
2023-08-30T10:37:43.600Z,4.95
2023-08-30T10:40:12.513Z,4.78
2023-08-30T10:42:39.616Z,4.93
2023-08-30T10:45:13.731Z,4.45
2023-08-30T10:47:42.142Z,4.75
2023-08-30T10:50:13.432Z,4.47
2023-08-30T10:55:12.492Z,4.63
2023-08-30T10:57:43.641Z,4.55
2023-08-30T11:02:39.173Z,4.70
2023-08-30T11:05:10.477Z,3.72
2023-08-30T11:07:37.868Z,4.97
2023-08-30T11:10:07.553Z,4.03
2023-08-30T11:12:34.898Z,4.57
2023-08-30T11:15:02.439Z,4.75
2023-08-30T11:17:30.049Z,4.43
2023-08-30T11:20:25.042Z,3.67
2023-08-30T11:22:53.192Z,4.30
2023-08-30T11:25:20.454Z,4.63
2023-08-30T11:27:48.738Z,4.63
2023-08-30T11:30:15.786Z,4.38
2023-08-30T11:32:46.903Z,4.38
2023-08-30T11:35:13.921Z,4.13
2023-08-30T11:37:42.352Z,3.85
2023-08-30T11:40:12.454Z,3.90
2023-08-30T11:42:39.934Z,3.88
2023-08-30T11:45:08.192Z,4.10
2023-08-30T11:47:35.795Z,3.80
2023-08-30T11:50:03.159Z,3.60
2023-08-30T11:52:30.766Z,5.32
2023-08-30T11:54:58.017Z,4.05
2023-08-30T11:57:27.282Z,3.78
2023-08-30T11:59:54.554Z,3.90
2023-08-30T12:02:23.265Z,4.68
2023-08-30T12:04:51.997Z,4.30
2023-08-30T12:07:26.663Z,4.13
2023-08-30T12:10:04.921Z,4.68
2023-08-30T12:12:32.290Z,4.20
2023-08-30T12:14:59.500Z,4.35
2023-08-30T12:17:26.844Z,4.75
2023-08-30T12:20:00.526Z,4.28
2023-08-30T12:22:43.710Z,4.97
2023-08-30T12:25:59.046Z,4.45
2023-08-30T12:28:32.875Z,4.80
2023-08-30T12:31:01.982Z,5.30
2023-08-30T12:33:32.581Z,5.60
2023-08-30T12:35:59.669Z,7.07
2023-08-30T12:38:26.967Z,7.93
2023-08-30T12:40:56.645Z,6.97
2023-08-30T12:43:24.906Z,6.63
2023-08-30T12:45:52.289Z,6.57
2023-08-30T12:48:19.922Z,7.03
2023-08-30T12:50:50.350Z,7.05
2023-08-30T12:53:20.398Z,6.82
2023-08-30T12:55:47.536Z,6.17
2023-08-30T12:58:15.317Z,6.30
2023-08-30T13:00:42.706Z,5.13
2023-08-30T13:03:10.290Z,5.32
2023-08-30T13:05:38.013Z,6.60
2023-08-30T13:08:05.234Z,7.60
2023-08-30T13:10:33.384Z,6.13
2023-08-30T13:13:00.498Z,5.55
2023-08-30T13:15:27.904Z,5.40
2023-08-30T13:17:54.995Z,6.40
2023-08-30T13:20:22.358Z,5.88
2023-08-30T13:22:49.642Z,5.47
2023-08-30T13:25:16.905Z,5.57
2023-08-30T13:27:43.807Z,6.22
2023-08-30T13:30:11.530Z,6.80
2023-08-30T13:32:38.756Z,7.20
2023-08-30T13:35:06.364Z,6.38
2023-08-30T13:37:33.317Z,7.03
2023-08-30T13:40:00.346Z,6.70
2023-08-30T13:42:27.552Z,6.35
2023-08-30T13:44:54.635Z,6.68
2023-08-30T13:47:21.915Z,6.97
2023-08-30T13:49:49.014Z,6.53
2023-08-30T13:52:16.972Z,7.25
2023-08-30T13:54:44.944Z,6.50
2023-08-30T13:57:12.280Z,6.45
2023-08-30T13:59:39.360Z,6.10
2023-08-30T14:02:06.599Z,6.25
2023-08-30T14:04:34.279Z,7.18
2023-08-30T14:07:01.487Z,7.00
2023-08-30T14:09:29.246Z,6.93
2023-08-30T14:11:57.032Z,7.45
2023-08-30T14:14:24.233Z,7.10
2023-08-30T14:16:51.354Z,7.43
2023-08-30T14:19:18.454Z,7.05
2023-08-30T14:21:45.791Z,7.20
2023-08-30T14:24:13.256Z,7.15
2023-08-30T14:26:40.587Z,7.63
2023-08-30T14:29:07.647Z,9.00
2023-08-30T14:31:34.606Z,8.00
2023-08-30T14:34:01.761Z,7.85
2023-08-30T14:36:28.975Z,7.82
2023-08-30T14:38:55.864Z,7.90
2023-08-30T14:41:22.995Z,7.55
2023-08-30T14:43:50.038Z,7.25
2023-08-30T14:46:22.472Z,7.50
2023-08-30T14:48:50.402Z,7.68
2023-08-30T14:51:17.450Z,8.60
2023-08-30T14:53:44.380Z,9.75
2023-08-30T14:56:12.969Z,8.63
2023-08-30T14:58:40.794Z,7.75
2023-08-30T15:01:11.001Z,9.82
2023-08-30T15:03:38.399Z,26.25
2023-08-30T15:06:05.448Z,15.63
2023-08-30T15:08:32.666Z,9.02
2023-08-30T15:10:59.956Z,8.88
2023-08-30T15:13:27.353Z,8.68
2023-08-30T15:15:54.881Z,8.80
2023-08-30T15:18:21.817Z,8.30
2023-08-30T15:20:50.299Z,8.75
2023-08-30T15:23:20.113Z,7.90
2023-08-30T15:25:48.055Z,7.60
2023-08-30T15:28:15.823Z,8.13
2023-08-30T15:30:44.531Z,8.05
2023-08-30T15:33:12.302Z,9.00
2023-08-30T15:35:40.625Z,8.43
2023-08-30T15:38:10.984Z,7.47
2023-08-30T15:40:38.538Z,8.38
2023-08-30T15:43:07.327Z,8.65
2023-08-30T15:45:35.186Z,8.20
2023-08-30T15:48:02.295Z,7.97
2023-08-30T15:50:29.349Z,8.30
2023-08-30T15:52:56.397Z,6.88
2023-08-30T15:55:23.855Z,7.68
2023-08-30T15:57:50.707Z,7.72
2023-08-30T16:00:18.340Z,8.88
2023-08-30T16:02:45.541Z,8.43
2023-08-30T16:05:12.525Z,8.60
2023-08-30T16:07:39.682Z,9.15
2023-08-30T16:10:08.839Z,8.20
2023-08-30T16:12:35.981Z,9.38
2023-08-30T16:15:03.274Z,8.00
2023-08-30T16:17:30.298Z,7.88
2023-08-30T16:19:59.479Z,8.07
2023-08-30T16:22:26.946Z,8.23
2023-08-30T16:24:53.946Z,7.60
2023-08-30T16:27:20.993Z,7.50
2023-08-30T16:29:47.971Z,8.18
2023-08-30T16:32:14.843Z,7.80
2023-08-30T16:34:42.454Z,11.07
2023-08-30T16:37:09.649Z,8.32
2023-08-30T16:39:36.822Z,7.63
2023-08-30T16:42:04.084Z,7.88
2023-08-30T16:44:31.312Z,7.80
2023-08-30T16:46:58.236Z,8.90
2023-08-30T16:49:25.234Z,8.52
2023-08-30T16:51:53.745Z,7.60
2023-08-30T16:54:20.838Z,8.05
2023-08-30T16:56:48.108Z,8.38
2023-08-30T16:59:15.512Z,8.40
2023-08-30T17:01:45.766Z,8.73
2023-08-30T17:04:15.145Z,9.40
2023-08-30T17:06:44.241Z,8.55
2023-08-30T17:09:11.369Z,9.13
2023-08-30T17:11:41.303Z,8.40
2023-08-30T17:14:12.107Z,8.85
2023-08-30T17:16:40.060Z,9.55
2023-08-30T17:19:07.294Z,9.23
2023-08-30T17:21:34.692Z,9.00
2023-08-30T17:24:01.634Z,9.77
2023-08-30T17:26:28.629Z,10.43
2023-08-30T17:28:55.487Z,9.07
2023-08-30T17:31:25.986Z,10.20
2023-08-30T17:33:53.191Z,9.95
2023-08-30T17:36:20.460Z,9.50
2023-08-30T17:38:48.755Z,9.98
2023-08-30T17:41:15.780Z,9.57
2023-08-30T17:43:42.630Z,9.52
2023-08-30T17:46:09.736Z,10.38
2023-08-30T17:48:36.874Z,9.68
2023-08-30T17:51:07.024Z,10.15
2023-08-30T17:53:35.168Z,9.90
2023-08-30T17:56:02.867Z,10.50
2023-08-30T17:58:29.981Z,9.77
2023-08-30T18:00:59.730Z,10.45
2023-08-30T18:03:30.647Z,10.10
2023-08-30T18:08:29.083Z,12.48
2023-08-30T18:10:56.329Z,11.73
2023-08-30T18:13:29.949Z,16.42
2023-08-30T18:15:57.906Z,18.02
2023-08-30T18:18:24.822Z,19.00
2023-08-30T18:20:51.775Z,19.58
2023-08-30T18:23:19.121Z,19.80
2023-08-30T18:25:46.088Z,21.48
2023-08-30T18:28:14.162Z,20.48
2023-08-30T18:30:42.148Z,20.77
2023-08-30T18:33:09.331Z,22.13
2023-08-30T18:35:36.760Z,21.60
2023-08-30T18:38:04.663Z,21.95
2023-08-30T18:40:31.594Z,22.92
2023-08-30T18:42:59.164Z,20.30
2023-08-30T18:45:26.123Z,21.33
2023-08-30T18:47:53.577Z,23.10
2023-08-30T18:50:20.829Z,20.73
2023-08-30T18:52:48.008Z,22.02
2023-08-30T18:55:15.363Z,20.25
2023-08-30T18:57:42.392Z,18.17
2023-08-30T19:00:11.681Z,19.45
2023-08-30T19:02:39.142Z,19.13
2023-08-30T19:05:07.712Z,14.95
2023-08-30T19:07:34.891Z,15.30
2023-08-30T19:10:01.940Z,12.40
2023-08-30T19:12:29.061Z,15.27
2023-08-30T19:14:56.177Z,16.45
2023-08-30T19:17:23.458Z,16.95
2023-08-30T19:19:50.384Z,15.50
2023-08-30T19:22:20.831Z,16.63
2023-08-30T19:24:49.286Z,14.60
2023-08-30T19:27:17.932Z,12.98
2023-08-30T19:29:47.607Z,11.82
2023-08-30T19:32:14.924Z,13.35
2023-08-30T19:34:41.893Z,12.55
2023-08-30T19:37:09.197Z,12.88
2023-08-30T19:39:36.345Z,13.82
2023-08-30T19:42:04.292Z,12.70
2023-08-30T19:44:31.277Z,13.50
2023-08-30T19:47:00.950Z,13.15
2023-08-30T19:49:34.912Z,13.32
2023-08-30T19:52:02.078Z,13.57
2023-08-30T19:54:34.278Z,14.10
2023-08-30T19:57:08.077Z,16.50
2023-08-30T19:59:35.684Z,16.20
2023-08-30T20:02:18.712Z,16.80
2023-08-30T20:04:45.796Z,17.25
2023-08-30T20:07:24.933Z,16.80
2023-08-30T20:09:52.036Z,15.93
2023-08-30T20:12:32.533Z,16.48
2023-08-30T20:15:05.986Z,16.25
2023-08-30T20:17:33.221Z,18.25
2023-08-30T20:20:00.777Z,18.00
2023-08-30T20:22:27.694Z,17.77
2023-08-30T20:24:56.215Z,18.70
2023-08-30T20:27:23.681Z,19.13
2023-08-30T20:29:50.839Z,19.30
2023-08-30T20:32:18.724Z,18.50
2023-08-30T20:34:46.178Z,17.38
2023-08-30T20:37:12.995Z,18.40
2023-08-30T20:39:40.374Z,18.98
2023-08-30T20:42:07.769Z,19.23
2023-08-30T20:44:34.696Z,17.98
2023-08-30T20:47:01.976Z,19.27
2023-08-30T20:49:28.846Z,18.40
2023-08-30T20:51:56.076Z,23.98
2023-08-30T20:54:22.900Z,20.23
2023-08-30T20:56:50.503Z,18.92
2023-08-30T20:59:17.557Z,19.73
2023-08-30T21:01:45.156Z,18.15
2023-08-30T21:04:12.172Z,17.70
2023-08-30T21:06:39.157Z,23.95
2023-08-30T21:09:06.551Z,23.92
2023-08-30T21:11:33.655Z,23.00
2023-08-30T21:14:01.398Z,19.95
2023-08-30T21:16:28.455Z,20.08
2023-08-30T21:18:55.794Z,17.48
2023-08-30T21:21:22.738Z,17.48
2023-08-30T21:23:49.843Z,17.85
2023-08-30T21:26:16.669Z,16.95
2023-08-30T21:28:43.884Z,16.30
2023-08-30T21:31:11.044Z,15.82
2023-08-30T21:33:38.197Z,16.90
2023-08-30T21:36:05.482Z,16.23
2023-08-30T21:38:32.515Z,16.00
2023-08-30T21:40:59.660Z,14.80
2023-08-30T21:43:27.010Z,15.45
2023-08-30T21:45:54.162Z,15.85
2023-08-30T21:48:21.814Z,15.43
2023-08-30T21:50:51.072Z,14.90
2023-08-30T21:53:19.740Z,15.75
2023-08-30T21:55:46.942Z,15.38
2023-08-30T21:58:14.555Z,16.52
2023-08-30T22:00:41.503Z,15.25
2023-08-30T22:03:08.945Z,16.48
2023-08-30T22:05:36.324Z,16.45
2023-08-30T22:08:03.804Z,16.92
2023-08-30T22:10:31.688Z,17.27
2023-08-30T22:12:59.008Z,16.50
2023-08-30T22:15:26.147Z,17.90
2023-08-30T22:17:53.412Z,16.70
2023-08-30T22:20:21.509Z,16.60
2023-08-30T22:22:49.076Z,15.55
2023-08-30T22:25:16.661Z,16.75
2023-08-30T22:27:44.757Z,16.02
2023-08-30T22:30:13.542Z,14.82
2023-08-30T22:32:40.629Z,14.57
2023-08-30T22:35:11.861Z,14.65
2023-08-30T22:37:39.144Z,14.52
2023-08-30T22:40:09.764Z,15.13
2023-08-30T22:42:39.390Z,14.48
2023-08-30T22:45:08.371Z,14.93
2023-08-30T22:47:35.896Z,15.07
2023-08-30T22:50:03.461Z,14.07
2023-08-30T22:52:30.629Z,15.10
2023-08-30T22:54:58.282Z,14.63
2023-08-30T22:57:25.230Z,15.20
2023-08-30T22:59:52.281Z,15.55
2023-08-30T23:02:19.192Z,15.98
2023-08-30T23:04:47.130Z,15.10
2023-08-30T23:07:14.878Z,15.18
2023-08-30T23:09:41.989Z,15.07
2023-08-30T23:12:09.558Z,18.63
2023-08-30T23:14:37.076Z,14.85
2023-08-30T23:17:04.616Z,17.08
2023-08-30T23:19:31.454Z,16.85
2023-08-30T23:21:58.639Z,17.00
2023-08-30T23:24:25.870Z,17.73
2023-08-30T23:26:53.249Z,15.65
2023-08-30T23:29:25.896Z,16.58
2023-08-30T23:31:56.299Z,16.27
2023-08-30T23:34:24.332Z,17.43
2023-08-30T23:36:51.361Z,18.00
2023-08-30T23:39:18.308Z,18.02
2023-08-30T23:41:45.687Z,17.05
2023-08-30T23:44:12.784Z,17.15
2023-08-30T23:46:39.870Z,17.58
2023-08-30T23:49:06.741Z,16.92
2023-08-30T23:51:33.994Z,16.83
2023-08-30T23:54:00.842Z,16.23
2023-08-30T23:56:27.700Z,17.55
2023-08-30T23:58:54.753Z,15.68
